Time;durP1;ratioP1;P1;durP2;ratioP2;P2;SDS_P1;SDS_P2;PMS_P1;PMS_P2;Temp;Humidity;BMP_temperature;BMP_pressure;BME280_temperature;BME280_humidity;BME280_pressure;Samples;Min_cycle;Max_cycle;Signal;HPM_P1;HPM_P2
2022/09/10 00:01:37;;;;;;;2.97;2.13;;;16.50;99.90;;;;;;5050147;28;21029;-46
2022/09/10 00:04:06;;;;;;;2.47;1.77;;;16.60;99.90;;;;;;5050103;28;20408;-46
2022/09/10 00:06:34;;;;;;;3.90;1.57;;;16.60;99.90;;;;;;5049311;28;20439;-45
2022/09/10 00:09:00;;;;;;;4.20;2.03;;;16.70;99.90;;;;;;5048629;28;20428;-47
2022/09/10 00:11:30;;;;;;;2.70;1.77;;;16.70;99.90;;;;;;5050162;28;20469;-46
2022/09/10 00:13:57;;;;;;;2.83;1.60;;;16.50;99.90;;;;;;5049944;28;20460;-46
2022/09/10 00:16:23;;;;;;;3.40;2.13;;;16.50;99.90;;;;;;5049965;28;20428;-45
2022/09/10 00:18:49;;;;;;;3.40;1.50;;;16.50;99.90;;;;;;5049052;28;20481;-47
2022/09/10 00:21:19;;;;;;;2.07;1.70;;;16.40;99.90;;;;;;5052875;28;20436;-48
2022/09/10 00:23:46;;;;;;;2.53;1.67;;;16.50;99.90;;;;;;5049552;28;20432;-45
2022/09/10 00:26:20;;;;;;;2.90;1.93;;;16.50;99.90;;;;;;5049906;28;20455;-46
2022/09/10 00:28:47;;;;;;;2.53;2.17;;;16.40;99.90;;;;;;5049158;28;20423;-47
2022/09/10 00:31:13;;;;;;;2.90;1.80;;;16.50;99.90;;;;;;5049781;28;20471;-46
2022/09/10 00:33:40;;;;;;;5.10;2.10;;;16.50;99.90;;;;;;5049364;28;20464;-47
2022/09/10 00:36:24;;;;;;;2.00;1.70;;;16.40;99.90;;;;;;5049786;28;20814;-47
2022/09/10 00:38:52;;;;;;;2.80;2.03;;;16.50;99.90;;;;;;5048725;28;20970;-47
2022/09/10 00:41:19;;;;;;;3.53;1.93;;;16.50;99.90;;;;;;5049803;28;21068;-45
2022/09/10 00:43:55;;;;;;;3.63;2.03;;;16.50;99.90;;;;;;5049557;28;20420;-46
2022/09/10 00:46:38;;;;;;;4.20;2.30;;;16.60;99.90;;;;;;5047932;28;21142;-47
2022/09/10 00:49:21;;;;;;;4.40;1.90;;;16.60;99.90;;;;;;5049429;28;20431;-45
2022/09/10 00:51:50;;;;;;;2.37;1.80;;;16.60;99.90;;;;;;5049614;28;20424;-45
2022/09/10 00:54:19;;;;;;;3.30;2.43;;;16.50;99.90;;;;;;5049644;28;20462;-47
2022/09/10 00:56:45;;;;;;;2.80;1.97;;;16.50;99.90;;;;;;5048588;28;20456;-47
2022/09/10 00:59:15;;;;;;;2.37;2.10;;;16.50;99.90;;;;;;5051355;28;20467;-46
2022/09/10 01:01:42;;;;;;;4.27;2.23;;;16.50;99.90;;;;;;5053283;28;20420;-49
2022/09/10 01:04:09;;;;;;;3.40;2.50;;;16.50;99.90;;;;;;5053582;28;20431;-45
2022/09/10 01:06:40;;;;;;;2.43;2.07;;;16.50;99.90;;;;;;5052638;28;20802;-47
2022/09/10 01:09:08;;;;;;;2.20;1.97;;;16.50;99.90;;;;;;5053212;28;20424;-45
2022/09/10 01:11:46;;;;;;;3.83;2.10;;;16.50;99.90;;;;;;5053145;28;20442;-45
2022/09/10 01:14:40;;;;;;;1.83;1.70;;;16.50;99.90;;;;;;5053389;28;20821;-45
2022/09/10 01:17:26;;;;;;;2.73;2.40;;;16.50;99.90;;;;;;5052441;28;20493;-45
2022/09/10 01:20:23;;;;;;;4.67;2.30;;;16.40;99.90;;;;;;5056347;28;20459;-46
2022/09/10 01:23:03;;;;;;;3.27;2.40;;;16.30;99.90;;;;;;5053000;28;20814;-46
2022/09/10 01:25:29;;;;;;;3.73;2.03;;;16.30;99.90;;;;;;5053160;28;20862;-48
2022/09/10 01:27:58;;;;;;;7.80;1.90;;;16.40;99.90;;;;;;5051905;28;20510;-46
2022/09/10 01:30:30;;;;;;;2.37;2.00;;;16.40;99.90;;;;;;5052945;28;20185;-46
2022/09/10 01:33:02;;;;;;;5.37;2.10;;;16.50;99.90;;;;;;5052572;28;20444;-46
2022/09/10 01:35:41;;;;;;;4.60;2.17;;;16.50;99.90;;;;;;5052860;28;20427;-47
2022/09/10 01:38:14;;;;;;;4.27;2.07;;;16.40;99.90;;;;;;5051906;28;20917;-47
2022/09/10 01:40:42;;;;;;;2.70;2.00;;;16.40;99.90;;;;;;5052835;28;20425;-48
2022/09/10 01:43:10;;;;;;;3.07;2.23;;;16.40;99.90;;;;;;5052685;28;20432;-47
2022/09/10 01:45:51;;;;;;;3.57;1.80;;;16.30;99.90;;;;;;5052747;28;20573;-47
2022/09/10 01:49:03;;;;;;;2.40;2.10;;;16.30;99.90;;;;;;5050371;28;20435;-48
2022/09/10 01:51:47;;;;;;;2.83;1.80;;;16.30;99.90;;;;;;5069732;28;20423;-48
2022/09/10 01:54:40;;;;;;;3.33;2.30;;;16.30;99.90;;;;;;5069731;28;20429;-49
2022/09/10 01:57:43;;;;;;;3.90;3.50;;;16.20;99.90;;;;;;5054579;28;20538;-47
2022/09/10 02:00:15;;;;;;;3.10;2.20;;;16.30;99.90;;;;;;5052466;28;20427;-46
2022/09/10 02:02:47;;;;;;;4.00;2.03;;;16.30;99.90;;;;;;5052266;28;20424;-46
2022/09/10 02:05:16;;;;;;;4.57;1.93;;;16.30;99.90;;;;;;5052081;28;20534;-47
2022/09/10 02:07:43;;;;;;;3.33;1.90;;;16.30;99.90;;;;;;5051523;28;20493;-47
2022/09/10 02:10:09;;;;;;;3.40;2.13;;;16.40;99.90;;;;;;5051150;28;20417;-45
2022/09/10 02:12:35;;;;;;;3.30;2.30;;;16.40;99.90;;;;;;5052178;28;21061;-46
2022/09/10 02:15:02;;;;;;;2.17;1.80;;;16.40;99.90;;;;;;5052154;28;20420;-47
2022/09/10 02:17:32;;;;;;;2.60;2.40;;;16.40;99.90;;;;;;5051454;28;21014;-46
2022/09/10 02:20:00;;;;;;;4.20;2.43;;;16.40;99.90;;;;;;5055587;28;20792;-45
2022/09/10 02:22:29;;;;;;;5.73;2.43;;;16.40;99.90;;;;;;5052145;28;20444;-45
2022/09/10 02:24:54;;;;;;;3.90;2.80;;;16.30;99.90;;;;;;5051731;28;20412;-45
2022/09/10 02:27:22;;;;;;;3.37;2.30;;;16.30;99.90;;;;;;5051403;28;20946;-46
2022/09/10 02:29:48;;;;;;;3.40;2.53;;;16.30;99.90;;;;;;5050477;28;20186;-48
2022/09/10 02:32:14;;;;;;;3.50;2.10;;;16.20;99.90;;;;;;5051873;28;20444;-47
2022/09/10 02:34:40;;;;;;;2.33;2.13;;;16.30;99.90;;;;;;5051515;28;20435;-48
2022/09/10 02:37:06;;;;;;;3.97;2.53;;;16.30;99.90;;;;;;5051364;28;20424;-45
2022/09/10 02:39:31;;;;;;;3.10;2.10;;;16.30;99.90;;;;;;5051512;28;20266;-45
2022/09/10 02:41:57;;;;;;;4.47;2.47;;;16.30;99.90;;;;;;5038585;28;20182;-45
2022/09/10 02:44:23;;;;;;;3.53;2.00;;;16.20;99.90;;;;;;5038253;28;20186;-45
2022/09/10 02:46:50;;;;;;;2.67;2.00;;;16.30;99.90;;;;;;5049518;28;21151;-45
2022/09/10 02:49:16;;;;;;;3.10;2.20;;;16.20;99.90;;;;;;5050912;28;20428;-45
2022/09/10 02:51:43;;;;;;;2.00;1.90;;;16.30;99.90;;;;;;5051159;28;20431;-46
2022/09/10 02:54:09;;;;;;;1.97;1.80;;;16.30;99.90;;;;;;5050413;28;20810;-48
2022/09/10 02:56:35;;;;;;;2.10;1.87;;;16.30;99.90;;;;;;5049974;28;20417;-46
2022/09/10 02:59:01;;;;;;;2.43;2.10;;;16.30;99.90;;;;;;5051089;28;20209;-45
2022/09/10 03:01:27;;;;;;;2.50;2.07;;;16.30;99.90;;;;;;5051090;28;20449;-50
2022/09/10 03:03:55;;;;;;;3.30;2.20;;;16.30;99.90;;;;;;5051042;28;20190;-49
2022/09/10 03:06:22;;;;;;;2.90;2.20;;;16.20;99.90;;;;;;5050916;28;20467;-47
2022/09/10 03:08:48;;;;;;;2.00;1.80;;;16.20;99.90;;;;;;5050552;28;20431;-45
2022/09/10 03:11:15;;;;;;;3.07;2.00;;;16.20;99.90;;;;;;5051088;28;20424;-48
2022/09/10 03:13:44;;;;;;;7.30;1.93;;;16.30;99.90;;;;;;5050996;28;20420;-45
2022/09/10 03:16:14;;;;;;;2.63;2.40;;;16.30;99.90;;;;;;5050678;28;20448;-47
2022/09/10 03:18:40;;;;;;;6.10;2.57;;;16.20;99.90;;;;;;5050344;28;20460;-51
2022/09/10 03:21:17;;;;;;;2.97;2.30;;;16.20;99.90;;;;;;5053954;28;20443;-46
2022/09/10 03:23:43;;;;;;;2.20;2.00;;;16.20;99.90;;;;;;5050906;28;20409;-45
2022/09/10 03:26:09;;;;;;;4.00;2.63;;;16.20;99.90;;;;;;5050705;28;20532;-47
2022/09/10 03:28:36;;;;;;;2.43;2.23;;;16.20;99.90;;;;;;5049867;28;20432;-47
2022/09/10 03:31:05;;;;;;;2.77;2.43;;;16.20;99.90;;;;;;5050672;28;20513;-45
2022/09/10 03:33:32;;;;;;;4.67;3.20;;;16.20;99.90;;;;;;5050625;28;20431;-44
2022/09/10 03:35:58;;;;;;;5.00;2.90;;;16.30;99.90;;;;;;5050482;28;20903;-49
2022/09/10 03:38:24;;;;;;;7.07;3.37;;;16.20;99.90;;;;;;5049780;28;20452;-46
2022/09/10 03:40:51;;;;;;;3.70;3.10;;;16.20;99.90;;;;;;5050480;28;20748;-45
2022/09/10 03:43:19;;;;;;;4.10;3.23;;;16.20;99.90;;;;;;5050054;28;20423;-44
2022/09/10 03:45:48;;;;;;;5.37;3.10;;;16.20;99.90;;;;;;5050614;28;20435;-46
2022/09/10 03:48:18;;;;;;;3.73;3.30;;;16.20;99.90;;;;;;5048190;28;20428;-47
2022/09/10 03:50:44;;;;;;;3.17;2.80;;;16.20;99.90;;;;;;5050398;28;20509;-45
2022/09/10 03:53:11;;;;;;;4.50;3.77;;;16.20;99.90;;;;;;5050211;28;20519;-46
2022/09/10 03:55:37;;;;;;;4.70;3.40;;;16.10;99.90;;;;;;5050222;28;20428;-45
2022/09/10 03:58:02;;;;;;;5.80;3.43;;;16.20;99.90;;;;;;5049178;28;20463;-48
2022/09/10 04:00:28;;;;;;;4.37;3.60;;;16.20;99.90;;;;;;5050426;28;20189;-45
2022/09/10 04:02:54;;;;;;;3.70;3.40;;;16.30;99.90;;;;;;5050078;28;20193;-47
2022/09/10 04:05:20;;;;;;;7.60;4.43;;;16.30;99.90;;;;;;5050045;28;20205;-46
2022/09/10 04:07:45;;;;;;;6.30;4.30;;;16.20;99.90;;;;;;5049371;28;20662;-47
2022/09/10 04:10:12;;;;;;;7.93;5.00;;;16.20;99.90;;;;;;5050021;28;20456;-47
2022/09/10 04:12:38;;;;;;;5.73;4.57;;;16.20;99.90;;;;;;5049857;28;20181;-50
2022/09/10 04:15:04;;;;;;;8.10;4.87;;;16.20;99.90;;;;;;5049964;28;20427;-47
2022/09/10 04:17:30;;;;;;;5.63;5.00;;;16.20;99.90;;;;;;5048037;28;20999;-45
2022/09/10 04:19:56;;;;;;;4.90;4.50;;;16.20;99.90;;;;;;5052495;28;20585;-45
2022/09/10 04:22:21;;;;;;;4.97;4.57;;;16.20;99.90;;;;;;5049908;28;20511;-49
2022/09/10 04:24:47;;;;;;;5.67;5.10;;;16.20;99.90;;;;;;5049608;28;20708;-47
2022/09/10 04:27:14;;;;;;;5.80;5.23;;;16.10;99.90;;;;;;5048975;28;20205;-48
2022/09/10 04:29:41;;;;;;;5.07;4.67;;;16.00;99.90;;;;;;5049794;28;20503;-46
2022/09/10 04:32:07;;;;;;;5.80;5.30;;;16.10;99.90;;;;;;5049655;28;20424;-46
2022/09/10 04:34:33;;;;;;;6.00;5.40;;;16.10;99.90;;;;;;5048948;28;20791;-47
2022/09/10 04:36:58;;;;;;;6.13;5.47;;;16.10;99.90;;;;;;5049118;28;20194;-49
2022/09/10 04:39:24;;;;;;;5.17;4.73;;;16.00;99.90;;;;;;5049276;28;20275;-49
2022/09/10 04:41:50;;;;;;;6.67;5.97;;;16.00;99.90;;;;;;5049532;28;20192;-49
2022/09/10 04:44:18;;;;;;;6.57;5.87;;;16.00;99.90;;;;;;5048221;28;20587;-47
2022/09/10 04:46:46;;;;;;;12.63;6.27;;;16.00;99.90;;;;;;5037973;28;20202;-49
2022/09/10 04:49:12;;;;;;;7.33;6.57;;;16.00;99.90;;;;;;5048992;28;20923;-50
2022/09/10 04:51:38;;;;;;;7.63;6.70;;;16.10;99.90;;;;;;5049459;28;20542;-47
2022/09/10 04:54:03;;;;;;;7.03;6.33;;;16.00;99.90;;;;;;5047963;28;20511;-46
2022/09/10 04:56:29;;;;;;;11.97;6.40;;;16.00;99.90;;;;;;5049354;28;20267;-47
2022/09/10 04:58:55;;;;;;;6.87;6.17;;;15.90;99.90;;;;;;5054893;28;20216;-47
2022/09/10 05:01:21;;;;;;;6.60;5.73;;;15.90;99.90;;;;;;5048431;28;20409;-45
2022/09/10 05:03:46;;;;;;;7.10;6.30;;;16.00;99.90;;;;;;5035978;28;20210;-47
2022/09/10 05:06:12;;;;;;;11.40;6.57;;;15.90;99.90;;;;;;5049345;28;20308;-46
2022/09/10 05:08:38;;;;;;;6.80;6.13;;;16.00;99.90;;;;;;5048685;28;20196;-48
2022/09/10 05:11:04;;;;;;;7.20;6.50;;;16.00;99.90;;;;;;5049284;28;20195;-46
2022/09/10 05:13:30;;;;;;;7.53;6.30;;;16.00;99.90;;;;;;5049535;28;20268;-49
2022/09/10 05:15:57;;;;;;;7.40;6.27;;;16.00;99.90;;;;;;5049298;28;20420;-46
2022/09/10 05:18:25;;;;;;;6.90;5.97;;;16.00;99.90;;;;;;5048608;28;20460;-45
2022/09/10 05:20:51;;;;;;;6.77;6.03;;;16.00;99.90;;;;;;5052120;28;20420;-50
2022/09/10 05:23:17;;;;;;;6.93;6.20;;;16.00;99.90;;;;;;5049141;28;20489;-50
2022/09/10 05:25:43;;;;;;;10.77;7.73;;;16.00;99.90;;;;;;5048909;28;20514;-45
2022/09/10 05:28:10;;;;;;;6.60;6.07;;;16.10;99.90;;;;;;5054973;28;20427;-46
2022/09/10 05:30:36;;;;;;;7.27;5.73;;;16.10;99.90;;;;;;5069462;28;20781;-49
2022/09/10 05:33:02;;;;;;;7.83;6.80;;;16.10;99.90;;;;;;5069097;28;20478;-45
2022/09/10 05:35:29;;;;;;;7.13;6.40;;;16.00;99.90;;;;;;5069213;28;20417;-47
2022/09/10 05:37:59;;;;;;;8.57;6.57;;;16.00;99.90;;;;;;5068101;28;20427;-48
2022/09/10 05:40:27;;;;;;;7.00;5.70;;;16.10;99.90;;;;;;5067863;28;20498;-49
2022/09/10 05:42:53;;;;;;;6.77;6.07;;;16.10;99.90;;;;;;5036636;28;20466;-47
2022/09/10 05:45:19;;;;;;;8.73;6.50;;;16.10;99.90;;;;;;5048308;28;20421;-47
2022/09/10 05:47:45;;;;;;;6.20;5.60;;;16.10;99.90;;;;;;5050864;28;20186;-48
2022/09/10 05:50:11;;;;;;;7.00;5.80;;;16.10;99.90;;;;;;5052886;28;20427;-49
2022/09/10 05:52:36;;;;;;;7.63;6.00;;;16.10;99.90;;;;;;5053520;28;20408;-47
2022/09/10 05:55:03;;;;;;;7.73;6.40;;;16.00;99.90;;;;;;5052498;28;20204;-44
2022/09/10 05:57:30;;;;;;;10.73;7.23;;;16.00;99.90;;;;;;5051787;28;20194;-48
2022/09/10 05:59:55;;;;;;;6.60;6.00;;;16.00;99.90;;;;;;5052332;28;21297;-48
2022/09/10 06:02:21;;;;;;;6.40;5.33;;;16.00;99.90;;;;;;5052315;28;20424;-49
2022/09/10 06:04:47;;;;;;;6.33;5.60;;;16.00;99.90;;;;;;5051160;28;20278;-47
2022/09/10 06:07:12;;;;;;;7.70;5.70;;;16.00;99.90;;;;;;5051407;28;20185;-48
2022/09/10 06:09:38;;;;;;;8.23;6.73;;;16.00;99.90;;;;;;5051954;28;20225;-51
2022/09/10 06:12:07;;;;;;;7.97;6.53;;;16.00;99.90;;;;;;5050723;28;20209;-47
2022/09/10 06:14:33;;;;;;;6.63;5.70;;;16.00;99.90;;;;;;5049036;28;20664;-48
2022/09/10 06:16:59;;;;;;;7.60;5.60;;;16.00;99.90;;;;;;5051404;28;20424;-48
2022/09/10 06:19:25;;;;;;;10.00;6.80;;;16.00;99.90;;;;;;5051747;28;20807;-50
2022/09/10 06:21:53;;;;;;;7.10;6.40;;;16.00;99.90;;;;;;5051733;28;20451;-51
2022/09/10 06:24:19;;;;;;;7.23;6.47;;;16.00;99.90;;;;;;5066505;28;20764;-46
2022/09/10 06:26:48;;;;;;;5.90;5.40;;;16.00;99.90;;;;;;5071443;28;20455;-45
2022/09/10 06:29:15;;;;;;;10.20;5.90;;;15.90;99.90;;;;;;5053845;28;20243;-47
2022/09/10 06:31:41;;;;;;;6.73;5.80;;;16.00;99.90;;;;;;5051652;28;20922;-45
2022/09/10 06:34:07;;;;;;;6.20;5.43;;;15.90;99.90;;;;;;5051304;28;20424;-46
2022/09/10 06:36:33;;;;;;;6.20;5.70;;;16.00;99.90;;;;;;5051370;28;20423;-46
2022/09/10 06:39:00;;;;;;;6.60;5.60;;;16.00;99.90;;;;;;5051254;28;20467;-48
2022/09/10 06:41:29;;;;;;;7.70;5.60;;;16.00;99.90;;;;;;5042649;28;20413;-49
2022/09/10 06:43:56;;;;;;;6.13;5.23;;;16.10;99.90;;;;;;5047882;28;20424;-50
2022/09/10 06:46:22;;;;;;;6.13;5.33;;;16.10;99.90;;;;;;5051441;28;20420;-50
2022/09/10 06:48:48;;;;;;;8.80;5.50;;;16.10;99.90;;;;;;5049794;28;20424;-47
2022/09/10 06:51:15;;;;;;;7.33;5.23;;;16.20;99.90;;;;;;5050083;28;20181;-47
2022/09/10 06:53:42;;;;;;;6.27;4.90;;;16.20;99.90;;;;;;5049571;28;20982;-48
2022/09/10 06:56:10;;;;;;;5.30;4.80;;;16.10;99.90;;;;;;5050048;28;20486;-49
2022/09/10 06:58:37;;;;;;;7.30;5.03;;;16.10;99.90;;;;;;5050984;28;20535;-46
2022/09/10 07:01:08;;;;;;;5.13;4.73;;;16.10;99.90;;;;;;5050869;28;21057;-50
2022/09/10 07:03:35;;;;;;;6.33;5.00;;;16.10;99.90;;;;;;5068580;28;20484;-49
2022/09/10 07:06:06;;;;;;;9.70;4.90;;;16.10;99.90;;;;;;5070991;28;20493;-49
2022/09/10 07:08:32;;;;;;;6.47;4.70;;;16.00;99.90;;;;;;5070359;28;20419;-49
2022/09/10 07:11:06;;;;;;;7.13;5.00;;;16.00;99.90;;;;;;5070933;28;20514;-47
2022/09/10 07:13:33;;;;;;;5.77;4.47;;;16.00;99.90;;;;;;5070921;28;20419;-50
2022/09/10 07:16:00;;;;;;;5.03;4.50;;;16.00;99.90;;;;;;5070860;28;20427;-48
2022/09/10 07:18:26;;;;;;;10.33;4.60;;;16.00;99.90;;;;;;5068749;28;20514;-47
2022/09/10 07:20:52;;;;;;;6.03;4.60;;;16.10;99.90;;;;;;5058168;28;20474;-47
2022/09/10 07:23:19;;;;;;;5.50;4.50;;;16.10;99.90;;;;;;5050724;28;20919;-45
2022/09/10 07:25:46;;;;;;;7.63;5.03;;;16.10;99.90;;;;;;5050677;28;20455;-48
2022/09/10 07:28:15;;;;;;;4.67;4.27;;;16.10;99.90;;;;;;5049745;28;20512;-47
2022/09/10 07:30:42;;;;;;;7.03;4.57;;;16.10;99.90;;;;;;5050883;28;20950;-47
2022/09/10 07:33:09;;;;;;;5.27;4.87;;;16.20;99.90;;;;;;5056593;28;20424;-46
2022/09/10 07:35:36;;;;;;;5.13;4.60;;;16.20;99.90;;;;;;5070523;28;20435;-46
2022/09/10 07:38:06;;;;;;;4.93;4.53;;;16.30;99.90;;;;;;5069759;28;20973;-47
2022/09/10 07:40:32;;;;;;;5.00;4.60;;;16.40;99.90;;;;;;5067930;28;20433;-49
2022/09/10 07:42:59;;;;;;;5.87;5.37;;;16.40;99.90;;;;;;5038333;28;20435;-47
2022/09/10 07:45:27;;;;;;;7.67;4.50;;;16.50;99.90;;;;;;5050528;28;20427;-47
2022/09/10 07:47:52;;;;;;;5.03;4.53;;;16.50;99.90;;;;;;5048356;28;20412;-51
2022/09/10 07:50:18;;;;;;;5.47;4.40;;;16.60;99.90;;;;;;5049800;28;20942;-47
2022/09/10 07:52:44;;;;;;;5.60;4.83;;;16.70;99.90;;;;;;5050195;28;20281;-48
2022/09/10 07:55:10;;;;;;;5.23;4.67;;;16.70;99.90;;;;;;5049953;28;20829;-49
2022/09/10 07:57:37;;;;;;;6.17;4.50;;;16.60;99.90;;;;;;5049467;28;20292;-49
2022/09/10 08:00:06;;;;;;;4.53;4.17;;;16.70;99.90;;;;;;5050245;28;20490;-48
2022/09/10 08:02:32;;;;;;;5.23;4.70;;;16.60;99.90;;;;;;5050509;28;20816;-50
2022/09/10 08:04:58;;;;;;;4.83;4.33;;;16.70;99.90;;;;;;5049803;28;20448;-52
2022/09/10 08:07:23;;;;;;;5.07;4.57;;;16.60;99.90;;;;;;5049346;28;20190;-50
2022/09/10 08:09:49;;;;;;;8.43;5.10;;;16.70;99.90;;;;;;5047970;28;20209;-47
2022/09/10 08:12:16;;;;;;;6.23;4.90;;;16.70;99.90;;;;;;5049987;28;20193;-52
2022/09/10 08:14:42;;;;;;;5.60;5.10;;;16.70;99.90;;;;;;5049798;28;20219;-50
2022/09/10 08:17:07;;;;;;;5.83;5.27;;;16.70;99.90;;;;;;5049364;28;20432;-51
2022/09/10 08:19:33;;;;;;;5.90;5.20;;;16.70;99.90;;;;;;5051998;28;20258;-52
2022/09/10 08:21:59;;;;;;;5.50;5.00;;;16.80;99.90;;;;;;5050006;28;20189;-51
2022/09/10 08:24:24;;;;;;;5.67;4.87;;;16.70;99.90;;;;;;5049660;28;20194;-52
2022/09/10 08:26:51;;;;;;;5.97;5.37;;;16.80;99.90;;;;;;5049356;28;20190;-49
2022/09/10 08:29:17;;;;;;;5.37;4.87;;;16.80;99.90;;;;;;5049637;28;20190;-50
2022/09/10 08:31:43;;;;;;;5.40;4.90;;;16.80;99.90;;;;;;5049905;28;20434;-51
2022/09/10 08:34:10;;;;;;;7.37;5.10;;;16.90;99.90;;;;;;5049691;28;20247;-49
2022/09/10 08:36:37;;;;;;;6.53;5.10;;;16.80;99.90;;;;;;5049409;28;20792;-47
2022/09/10 08:39:03;;;;;;;6.93;5.20;;;16.90;99.90;;;;;;5049251;28;20555;-51
2022/09/10 08:41:40;;;;;;;7.17;4.83;;;16.90;99.90;;;;;;5049424;28;20496;-52
2022/09/10 08:44:08;;;;;;;6.13;5.63;;;16.90;99.90;;;;;;5049669;28;20189;-50
2022/09/10 08:47:28;;;;;;;5.90;5.40;;;16.90;99.90;;;;;;5048158;28;20939;-51
2022/09/10 08:50:00;;;;;;;5.70;5.10;;;17.00;99.90;;;;;;5049554;28;20979;-51
2022/09/10 08:52:36;;;;;;;9.53;6.00;;;17.00;99.90;;;;;;5048724;28;20416;-49
2022/09/10 08:55:22;;;;;;;6.00;5.47;;;16.90;99.90;;;;;;5049573;28;20412;-48
2022/09/10 08:58:10;;;;;;;6.00;5.50;;;16.90;99.90;;;;;;5038319;28;20427;-49
2022/09/10 09:00:38;;;;;;;6.30;5.70;;;17.00;99.90;;;;;;5049654;28;20424;-50
2022/09/10 09:03:17;;;;;;;9.57;5.53;;;17.00;99.90;;;;;;5049583;28;20427;-49
2022/09/10 09:05:54;;;;;;;7.87;5.73;;;17.00;99.90;;;;;;5049370;28;20446;-48
2022/09/10 09:08:24;;;;;;;6.87;5.70;;;17.00;99.90;;;;;;5048519;28;20791;-49
2022/09/10 09:11:09;;;;;;;6.60;6.10;;;17.10;99.90;;;;;;5049521;28;20921;-47
2022/09/10 09:14:19;;;;;;;7.00;6.30;;;17.10;99.90;;;;;;5049488;28;20416;-48
2022/09/10 09:17:08;;;;;;;7.13;5.27;;;17.20;99.90;;;;;;5048456;28;20448;-50
2022/09/10 09:20:04;;;;;;;6.47;5.83;;;17.10;99.90;;;;;;5053533;28;20586;-50
2022/09/10 09:22:49;;;;;;;6.13;5.53;;;17.20;99.90;;;;;;5053080;28;20424;-50
2022/09/10 09:25:26;;;;;;;8.27;6.50;;;17.20;99.90;;;;;;5053313;28;20420;-51
2022/09/10 09:27:56;;;;;;;6.30;5.70;;;17.30;99.90;;;;;;5052198;28;20444;-48
2022/09/10 09:30:30;;;;;;;6.83;6.23;;;17.30;99.90;;;;;;5052871;28;20416;-47
2022/09/10 09:33:02;;;;;;;7.47;6.57;;;17.40;99.90;;;;;;5052784;28;20419;-49
2022/09/10 09:35:36;;;;;;;7.03;6.00;;;17.40;99.90;;;;;;5052877;28;20412;-49
2022/09/10 09:38:42;;;;;;;8.47;6.83;;;17.40;99.90;;;;;;5051739;28;20451;-49
2022/09/10 09:41:21;;;;;;;7.77;6.90;;;17.50;99.90;;;;;;5052995;28;20430;-47
2022/09/10 09:43:59;;;;;;;5.97;5.37;;;17.60;99.90;;;;;;5052351;28;20503;-49
2022/09/10 09:46:24;;;;;;;6.23;5.70;;;17.60;99.90;;;;;;5052018;28;20511;-49
2022/09/10 09:48:56;;;;;;;7.03;6.40;;;17.70;99.90;;;;;;5052002;28;20523;-49
2022/09/10 09:51:25;;;;;;;7.40;6.70;;;17.70;99.90;;;;;;5052809;28;20198;-51
2022/09/10 09:53:55;;;;;;;7.00;6.40;;;17.80;99.90;;;;;;5052316;28;20802;-50
2022/09/10 09:56:30;;;;;;;7.83;7.07;;;17.70;99.90;;;;;;5052287;28;20420;-52
2022/09/10 09:59:07;;;;;;;10.57;7.13;;;17.70;99.90;;;;;;5051932;28;20483;-50
2022/09/10 10:01:38;;;;;;;7.50;6.80;;;17.60;99.90;;;;;;5052522;28;20443;-47
2022/09/10 10:04:20;;;;;;;7.27;6.57;;;17.60;99.90;;;;;;5052270;28;20443;-48
2022/09/10 10:06:54;;;;;;;8.00;6.80;;;17.50;99.90;;;;;;5051590;28;20420;-48
2022/09/10 10:09:47;;;;;;;7.13;6.47;;;17.40;99.90;;;;;;5052277;28;20424;-47
2022/09/10 10:12:19;;;;;;;6.67;6.17;;;17.40;99.90;;;;;;5053055;28;20508;-49
2022/09/10 10:14:45;;;;;;;8.23;6.40;;;17.40;99.90;;;;;;5051899;28;20420;-47
2022/09/10 10:17:24;;;;;;;10.20;6.37;;;17.30;99.90;;;;;;5051451;28;20436;-46
2022/09/10 10:20:07;;;;;;;6.63;6.13;;;17.30;99.90;;;;;;5054756;28;20205;-47
2022/09/10 10:22:34;;;;;;;6.73;5.87;;;17.20;99.90;;;;;;5052102;28;20428;-49
2022/09/10 10:25:01;;;;;;;9.50;5.60;;;17.20;99.90;;;;;;5051897;28;20443;-48
2022/09/10 10:27:31;;;;;;;5.70;5.27;;;17.10;99.90;;;;;;5051021;28;20781;-47
2022/09/10 10:30:02;;;;;;;5.33;4.70;;;17.10;99.90;;;;;;5051772;28;20459;-49
2022/09/10 10:32:38;;;;;;;5.47;4.97;;;17.00;99.90;;;;;;5051024;28;20428;-51
2022/09/10 10:35:24;;;;;;;6.17;5.57;;;17.00;99.90;;;;;;5051754;28;20443;-48
2022/09/10 10:38:11;;;;;;;7.13;5.27;;;17.00;99.90;;;;;;5050551;28;20428;-47
2022/09/10 10:40:55;;;;;;;5.40;5.00;;;16.90;99.90;;;;;;5051622;28;20440;-49
2022/09/10 10:43:46;;;;;;;5.60;5.10;;;16.90;99.90;;;;;;5050951;28;20890;-48
2022/09/10 10:46:19;;;;;;;5.87;5.00;;;16.90;99.90;;;;;;5049335;28;20526;-46
2022/09/10 10:49:33;;;;;;;6.27;5.40;;;16.90;99.90;;;;;;5050906;28;20503;-50
2022/09/10 10:52:05;;;;;;;5.20;4.70;;;16.80;99.90;;;;;;5050871;28;20428;-50
2022/09/10 10:54:49;;;;;;;5.23;4.80;;;16.80;99.90;;;;;;5050516;28;20914;-46
2022/09/10 10:57:21;;;;;;;4.50;4.10;;;16.70;99.90;;;;;;5050721;28;20416;-48
2022/09/10 11:00:14;;;;;;;5.30;4.10;;;16.70;99.90;;;;;;5050865;28;21117;-51
2022/09/10 11:03:20;;;;;;;4.33;4.00;;;16.60;99.90;;;;;;5050752;28;20478;-50
2022/09/10 11:05:55;;;;;;;4.53;4.17;;;16.60;99.90;;;;;;5050659;28;20489;-50
2022/09/10 11:08:25;;;;;;;4.40;4.10;;;16.60;99.90;;;;;;5049345;28;20501;-46
2022/09/10 11:10:57;;;;;;;4.03;3.73;;;16.50;99.90;;;;;;5050917;28;20443;-49
2022/09/10 11:13:33;;;;;;;4.90;4.50;;;16.60;99.90;;;;;;5050750;28;20467;-49
2022/09/10 11:16:05;;;;;;;5.00;4.60;;;16.60;99.90;;;;;;5051074;28;20420;-45
2022/09/10 11:18:37;;;;;;;5.43;4.93;;;16.60;99.90;;;;;;5050425;28;20464;-45
2022/09/10 11:21:03;;;;;;;5.67;5.17;;;16.60;99.90;;;;;;5054695;28;20455;-48
2022/09/10 11:23:57;;;;;;;5.37;4.90;;;16.60;99.90;;;;;;5050896;28;20853;-49
2022/09/10 11:26:40;;;;;;;5.43;5.00;;;16.70;99.90;;;;;;5041206;28;20259;-48
2022/09/10 11:29:27;;;;;;;5.90;5.43;;;16.70;99.90;;;;;;5050733;28;20432;-46
2022/09/10 11:31:59;;;;;;;5.30;4.80;;;16.70;99.90;;;;;;5050241;28;20447;-46
2022/09/10 11:34:57;;;;;;;5.60;5.20;;;16.80;99.90;;;;;;5050522;28;20783;-47
2022/09/10 11:37:44;;;;;;;5.50;5.10;;;16.80;99.90;;;;;;5049808;28;20919;-49
2022/09/10 11:40:38;;;;;;;4.93;4.53;;;16.90;99.90;;;;;;5050665;28;20463;-48
2022/09/10 11:43:12;;;;;;;5.53;5.13;;;16.90;99.90;;;;;;5039274;28;20823;-46
2022/09/10 11:45:55;;;;;;;4.77;4.37;;;16.90;99.90;;;;;;5050522;28;20443;-47
2022/09/10 11:48:40;;;;;;;6.67;5.30;;;17.00;99.90;;;;;;5048710;28;20420;-46
2022/09/10 11:51:24;;;;;;;5.87;5.37;;;17.20;99.90;;;;;;5050434;28;20835;-47
2022/09/10 11:53:52;;;;;;;6.93;6.23;;;17.40;99.90;;;;;;5050182;28;20442;-46
2022/09/10 11:56:30;;;;;;;7.40;6.70;;;17.60;99.90;;;;;;5050447;28;20424;-48
2022/09/10 11:59:34;;;;;;;8.23;7.43;;;17.80;99.90;;;;;;5049415;28;20463;-47
2022/09/10 12:02:31;;;;;;;8.40;7.70;;;18.00;99.90;;;;;;5067213;28;20961;-48
2022/09/10 12:05:19;;;;;;;9.23;8.33;;;18.10;99.90;;;;;;5067222;28;20439;-45
2022/09/10 12:08:05;;;;;;;8.70;7.90;;;18.20;99.90;;;;;;5047288;28;20803;-50
2022/09/10 12:10:44;;;;;;;9.50;8.50;;;18.30;99.90;;;;;;5050256;28;20482;-48
2022/09/10 12:13:16;;;;;;;8.20;7.50;;;18.20;99.90;;;;;;5050049;28;20428;-49
2022/09/10 12:15:58;;;;;;;10.53;9.00;;;18.20;99.90;;;;;;5050057;28;20420;-47
2022/09/10 12:18:40;;;;;;;8.93;8.13;;;18.10;99.90;;;;;;5049172;28;20992;-46
2022/09/10 12:21:23;;;;;;;8.67;7.77;;;18.10;99.90;;;;;;5053672;28;20908;-47
2022/09/10 12:23:49;;;;;;;9.93;8.43;;;18.00;99.90;;;;;;5049765;28;20416;-46
2022/09/10 12:26:19;;;;;;;9.23;8.20;;;18.00;99.90;;;;;;5049620;28;20432;-48
2022/09/10 12:28:48;;;;;;;11.90;8.80;;;18.00;99.90;;;;;;5049217;28;20556;-49
2022/09/10 12:31:18;;;;;;;11.53;10.53;;;18.00;99.90;;;;;;5050000;28;20554;-45
2022/09/10 12:33:44;;;;;;;10.13;9.20;;;18.00;99.90;;;;;;5049787;28;20467;-50
2022/09/10 12:36:13;;;;;;;10.90;9.90;;;18.00;99.90;;;;;;5049721;28;20908;-48
2022/09/10 12:39:16;;;;;;;12.17;11.07;;;18.00;99.90;;;;;;5048837;28;20228;-47
2022/09/10 12:41:41;;;;;;;12.87;10.50;;;17.90;99.90;;;;;;5049893;28;20428;-49
2022/09/10 12:44:42;;;;;;;13.87;12.47;;;17.90;99.90;;;;;;5049633;28;20447;-50
2022/09/10 12:47:14;;;;;;;13.37;12.00;;;17.80;99.90;;;;;;5047968;28;20660;-45
2022/09/10 12:49:58;;;;;;;11.43;10.43;;;17.80;99.90;;;;;;5049369;28;20946;-49
2022/09/10 12:52:49;;;;;;;13.33;12.00;;;17.70;99.90;;;;;;5049682;28;20962;-49
2022/09/10 12:55:27;;;;;;;13.00;11.90;;;17.70;99.90;;;;;;5051374;28;20763;-45
2022/09/10 12:58:05;;;;;;;16.10;14.00;;;17.70;99.90;;;;;;5044002;28;20823;-47
2022/09/10 13:00:52;;;;;;;12.27;11.07;;;17.60;99.90;;;;;;5053652;28;20822;-46
2022/09/10 13:03:19;;;;;;;12.93;11.67;;;17.60;99.90;;;;;;5053545;28;20451;-48
2022/09/10 13:05:49;;;;;;;12.93;11.63;;;17.50;99.90;;;;;;5053034;28;20537;-50
2022/09/10 13:08:14;;;;;;;12.97;11.80;;;17.50;99.90;;;;;;5052860;28;20472;-47
2022/09/10 13:11:05;;;;;;;13.83;12.37;;;17.50;99.90;;;;;;5053477;28;20976;-52